Terminal Aerodrome Forecast
Issued by NWS

Home | Current Version | Previous Version | Text Only | Print | Product List | Glossary On
Versions: 1 2 3 4 5 6 7 8 9 10 11 12 13 14 15 16
000
FTUS44 KEPZ 191847 AAA
TAFLRU
TAF AMD
KLRU 191847Z 1919/2018 24025G35KT P6SM VCSH FEW020 BKN050
     FM200100 25018G25KT P6SM VCSH SCT050 BKN120
     FM200600 26020G32KT P6SM VCSH BKN050 BKN250=

USA.gov is the U.S. government's official web portal to all federal, state and local government web resources and services.